Time;durP1;ratioP1;P1;durP2;ratioP2;P2;SDS_P1;SDS_P2;PMS_P1;PMS_P2;Temp;Humidity;BMP_temperature;BMP_pressure;BME280_temperature;BME280_humidity;BME280_pressure;Samples;Min_cycle;Max_cycle;Signal;HPM_P1;HPM_P2
2021/03/19 00:00:15;;;;;;;23.35;7.03;;;8.40;99.90;;;;;;5057528;28;20083;-68
2021/03/19 00:02:41;;;;;;;20.33;6.75;;;8.50;99.90;;;;;;5058065;28;20032;-68
2021/03/19 00:05:09;;;;;;;;;;;8.60;99.90;;;;;;5056497;28;20025;-68
2021/03/19 00:07:46;;;;;;;16.02;5.72;;;8.60;99.90;;;;;;5057795;28;19904;-68
2021/03/19 00:10:15;;;;;;;22.15;6.57;;;8.60;99.90;;;;;;5057864;28;20021;-68
2021/03/19 00:12:41;;;;;;;23.45;7.13;;;8.70;99.90;;;;;;5057845;28;20058;-68
2021/03/19 00:15:07;;;;;;;;;;;8.80;99.90;;;;;;5057945;28;20488;-68
2021/03/19 00:17:34;;;;;;;25.15;6.88;;;8.60;99.90;;;;;;5057603;28;19912;-68
2021/03/19 00:20:00;;;;;;;30.80;7.82;;;8.60;99.90;;;;;;5057141;28;20036;-68
2021/03/19 00:22:25;;;;;;;;;;;8.60;99.90;;;;;;5057964;28;20020;-68
2021/03/19 00:24:51;;;;;;;24.30;6.97;;;8.60;99.90;;;;;;5057357;28;19940;-68
2021/03/19 00:27:17;;;;;;;;;;;8.70;99.90;;;;;;5057916;28;20024;-68
2021/03/19 00:29:43;;;;;;;26.42;7.75;;;8.60;99.90;;;;;;5057205;28;20338;-68
2021/03/19 00:32:08;;;;;;;26.60;7.53;;;8.60;99.90;;;;;;5057426;28;20028;-68
2021/03/19 00:34:34;;;;;;;;;;;8.60;99.90;;;;;;5053657;28;20045;-68
2021/03/19 00:37:00;;;;;;;16.58;5.60;;;8.70;99.90;;;;;;5057066;28;19911;-68
2021/03/19 00:39:25;;;;;;;;;;;8.70;99.90;;;;;;5057572;28;20023;-68
2021/03/19 00:41:52;;;;;;;24.25;6.43;;;8.80;99.90;;;;;;5057468;28;19904;-68
2021/03/19 00:44:18;;;;;;;25.88;7.22;;;8.70;99.90;;;;;;5057078;28;20044;-68
2021/03/19 00:46:44;;;;;;;;;;;8.70;99.90;;;;;;5057655;28;20025;-68
2021/03/19 00:49:10;;;;;;;19.42;6.72;;;9.00;99.90;;;;;;5056993;28;19904;-68
2021/03/19 00:51:35;;;;;;;;;;;8.60;99.90;;;;;;5057420;28;20044;-68
2021/03/19 00:54:02;;;;;;;26.15;8.40;;;8.80;99.90;;;;;;5057040;28;20386;-68
2021/03/19 00:56:27;;;;;;;18.92;6.47;;;8.80;99.90;;;;;;5057327;28;20114;-68
2021/03/19 00:58:53;;;;;;;;;;;8.70;99.90;;;;;;5058749;28;20512;-68
2021/03/19 01:01:19;;;;;;;23.15;7.60;;;8.80;99.90;;;;;;5061130;28;19931;-68
2021/03/19 01:03:45;;;;;;;;;;;8.80;99.90;;;;;;5061429;28;20025;-68
2021/03/19 01:06:11;;;;;;;18.17;7.15;;;8.80;99.90;;;;;;5060891;28;20004;-68
2021/03/19 01:08:37;;;;;;;22.50;7.07;;;8.80;99.90;;;;;;5060945;28;20442;-68
2021/03/19 01:11:03;;;;;;;;;;;8.80;99.90;;;;;;5061484;28;20029;-68
2021/03/19 01:13:29;;;;;;;28.75;6.68;;;8.80;99.90;;;;;;5060829;28;19905;-68
2021/03/19 01:15:54;;;;;;;;;;;8.90;99.90;;;;;;5061299;28;20025;-68
2021/03/19 01:18:25;;;;;;;18.55;7.82;;;8.80;99.90;;;;;;5060882;28;19912;-68
2021/03/19 01:20:51;;;;;;;19.50;6.10;;;8.90;99.90;;;;;;5060516;28;20436;-68
2021/03/19 01:23:18;;;;;;;19.67;5.97;;;8.80;99.90;;;;;;5060573;28;20048;-68
2021/03/19 01:25:44;;;;;;;17.80;6.97;;;8.90;99.90;;;;;;5060906;28;20864;-68
2021/03/19 01:28:14;;;;;;;23.15;6.65;;;8.90;99.90;;;;;;5060704;28;20207;-68
2021/03/19 01:30:41;;;;;;;20.42;6.25;;;8.80;99.90;;;;;;5060444;28;20045;-68
2021/03/19 01:33:07;;;;;;;25.67;6.35;;;8.90;99.90;;;;;;5060502;28;20078;-68
2021/03/19 01:35:38;;;;;;;21.63;5.68;;;9.00;99.90;;;;;;5054821;28;20025;-68
2021/03/19 01:38:05;;;;;;;28.90;7.95;;;9.00;99.90;;;;;;5060370;28;20536;-68
2021/03/19 01:40:51;;;;;;;22.27;6.78;;;8.80;99.90;;;;;;5060538;28;20020;-68
2021/03/19 01:43:45;;;;;;;24.13;6.77;;;9.00;99.90;;;;;;5060229;28;20037;-68
2021/03/19 01:46:48;;;;;;;20.58;5.80;;;8.90;99.90;;;;;;5060317;28;20024;-68
2021/03/19 01:49:52;;;;;;;24.60;7.70;;;8.90;99.90;;;;;;5060286;28;20025;-68
2021/03/19 01:52:55;;;;;;;21.17;6.05;;;8.90;99.90;;;;;;5059915;28;20025;-68
2021/03/19 01:55:58;;;;;;;16.77;5.35;;;8.80;99.90;;;;;;5060062;28;20027;-68
2021/03/19 01:59:01;;;;;;;15.27;5.35;;;8.90;99.90;;;;;;5060315;28;20036;-68
2021/03/19 02:02:05;;;;;;;21.30;6.47;;;8.90;99.90;;;;;;5059874;28;20075;-68
2021/03/19 02:05:08;;;;;;;19.08;5.47;;;8.90;99.90;;;;;;5060083;28;20028;-68
2021/03/19 02:08:11;;;;;;;14.95;5.72;;;9.00;99.90;;;;;;5059965;28;20485;-68
2021/03/19 02:11:14;;;;;;;25.25;7.45;;;9.00;99.90;;;;;;5059666;28;20159;-68
2021/03/19 02:14:17;;;;;;;19.23;6.25;;;9.10;99.90;;;;;;5059725;28;20088;-68
2021/03/19 02:17:21;;;;;;;23.42;5.85;;;9.10;99.90;;;;;;5059706;28;20033;-68
2021/03/19 02:20:24;;;;;;;23.50;6.05;;;8.90;99.90;;;;;;5059486;28;20500;-68
2021/03/19 02:23:27;;;;;;;22.20;6.57;;;8.90;99.90;;;;;;5059465;28;20029;-68
2021/03/19 02:26:30;;;;;;;21.40;7.82;;;9.00;99.90;;;;;;5051347;28;20017;-68
2021/03/19 02:29:34;;;;;;;17.13;5.72;;;9.10;99.90;;;;;;5059588;28;20013;-68
2021/03/19 02:32:07;;;;;;;15.45;6.57;;;9.00;99.90;;;;;;5048606;28;20060;-68
2021/03/19 02:34:45;;;;;;;14.30;5.65;;;9.20;99.90;;;;;;5056051;28;20103;-68
2021/03/19 02:37:14;;;;;;;11.88;5.72;;;9.20;99.90;;;;;;5059425;28;20079;-68
2021/03/19 02:39:40;;;;;;;20.40;6.32;;;9.20;99.90;;;;;;5059388;28;20053;-68
2021/03/19 02:42:06;;;;;;;;;;;9.20;99.90;;;;;;5059742;28;20367;-68
2021/03/19 02:44:33;;;;;;;18.35;5.30;;;9.10;99.90;;;;;;5059135;28;19980;-68
2021/03/19 02:46:59;;;;;;;14.45;5.78;;;9.30;99.90;;;;;;5059238;28;20051;-68
2021/03/19 02:49:24;;;;;;;;;;;9.10;99.90;;;;;;5059381;28;20477;-68
2021/03/19 02:51:53;;;;;;;18.42;6.20;;;9.20;99.90;;;;;;5058779;28;19999;-68
2021/03/19 02:54:19;;;;;;;17.60;6.28;;;9.20;99.90;;;;;;5059057;28;20021;-68
2021/03/19 02:56:45;;;;;;;17.52;6.20;;;9.10;99.90;;;;;;5059028;28;20032;-68
2021/03/19 02:59:11;;;;;;;;;;;9.10;99.90;;;;;;5059367;28;20059;-68
2021/03/19 03:01:37;;;;;;;19.67;6.15;;;9.30;99.90;;;;;;5058712;28;19924;-68
2021/03/19 03:04:03;;;;;;;18.65;5.90;;;9.20;99.90;;;;;;5058743;28;20029;-68
2021/03/19 03:06:43;;;;;;;16.10;5.85;;;9.20;99.90;;;;;;5058441;28;20025;-68
2021/03/19 03:09:15;;;;;;;16.83;7.55;;;9.20;99.90;;;;;;5058690;28;20095;-68
2021/03/19 03:11:42;;;;;;;12.65;5.57;;;9.30;99.90;;;;;;5058797;28;20056;-68
2021/03/19 03:14:12;;;;;;;15.75;6.32;;;9.20;99.90;;;;;;5058622;28;20386;-68
2021/03/19 03:16:38;;;;;;;18.83;6.57;;;9.30;99.90;;;;;;5058549;28;20029;-68
2021/03/19 03:19:06;;;;;;;19.98;6.50;;;9.20;99.90;;;;;;5058560;28;20113;-68
2021/03/19 03:21:32;;;;;;;15.70;6.60;;;9.20;99.90;;;;;;5057447;28;20029;-68
2021/03/19 03:23:59;;;;;;;12.13;6.70;;;9.20;99.90;;;;;;5058485;28;20554;-68
2021/03/19 03:26:25;;;;;;;20.92;7.35;;;9.20;99.90;;;;;;5058272;28;20413;-68
2021/03/19 03:28:51;;;;;;;;;;;9.20;99.90;;;;;;5057769;28;20024;-68
2021/03/19 03:31:17;;;;;;;41.08;9.70;;;9.10;99.90;;;;;;5058504;28;20454;-68
2021/03/19 03:33:42;;;;;;;;;;;9.10;99.90;;;;;;5058868;28;20086;-68
2021/03/19 03:36:08;;;;;;;12.45;5.53;;;9.10;99.90;;;;;;5054172;28;19911;-69
2021/03/19 03:38:35;;;;;;;12.38;6.10;;;9.20;99.90;;;;;;5058105;28;20029;-68
2021/03/19 03:41:04;;;;;;;13.00;6.13;;;9.20;99.90;;;;;;5058042;28;20055;-68
2021/03/19 03:43:31;;;;;;;16.17;8.13;;;9.30;99.90;;;;;;5058128;28;20048;-68
2021/03/19 03:45:57;;;;;;;13.82;7.13;;;9.20;99.90;;;;;;5056625;28;20043;-68
2021/03/19 03:48:27;;;;;;;11.75;6.43;;;9.10;99.90;;;;;;5058182;28;20064;-68
2021/03/19 03:50:53;;;;;;;14.80;6.95;;;9.10;99.90;;;;;;5057495;28;20021;-68
2021/03/19 03:53:21;;;;;;;12.68;6.32;;;9.10;99.90;;;;;;5058201;28;20056;-68
2021/03/19 03:55:47;;;;;;;13.68;6.85;;;9.00;99.90;;;;;;5057767;28;20103;-68
2021/03/19 03:58:13;;;;;;;;;;;9.10;99.90;;;;;;5058238;28;20032;-69
2021/03/19 04:00:42;;;;;;;11.32;6.85;;;9.00;99.90;;;;;;5057584;28;20293;-68
2021/03/19 04:03:09;;;;;;;13.13;6.22;;;9.00;99.90;;;;;;5057740;28;20456;-68
2021/03/19 04:05:42;;;;;;;15.93;6.90;;;8.90;99.90;;;;;;5057325;28;20076;-68
2021/03/19 04:08:10;;;;;;;19.52;8.70;;;9.10;99.90;;;;;;5057784;28;20503;-68
2021/03/19 04:10:37;;;;;;;15.02;7.85;;;9.10;99.90;;;;;;5057620;28;20051;-68
2021/03/19 04:13:04;;;;;;;20.45;7.28;;;9.00;99.90;;;;;;5057609;28;20425;-69
2021/03/19 04:15:31;;;;;;;13.32;6.82;;;9.00;99.90;;;;;;5056134;28;20029;-69
2021/03/19 04:17:59;;;;;;;15.10;7.28;;;8.90;99.90;;;;;;5057737;28;20021;-69
2021/03/19 04:20:26;;;;;;;13.82;6.88;;;9.00;99.90;;;;;;5057068;28;20025;-69
2021/03/19 04:22:53;;;;;;;13.25;6.72;;;8.90;99.90;;;;;;5056037;28;20029;-69
2021/03/19 04:25:20;;;;;;;14.77;7.13;;;9.00;99.90;;;;;;5057716;28;20158;-68
2021/03/19 04:27:56;;;;;;;16.13;6.40;;;9.10;99.90;;;;;;5057368;28;20059;-69
2021/03/19 04:30:33;;;;;;;12.75;7.13;;;9.10;99.90;;;;;;5057390;28;20028;-68
2021/03/19 04:33:00;;;;;;;13.05;7.03;;;9.00;99.90;;;;;;5056504;28;20033;-69
2021/03/19 04:35:28;;;;;;;9.48;6.55;;;8.90;99.90;;;;;;5053410;28;20040;-69
2021/03/19 04:37:58;;;;;;;13.80;6.75;;;9.00;99.90;;;;;;5057169;28;20032;-69
2021/03/19 04:40:26;;;;;;;15.10;8.45;;;9.00;99.90;;;;;;5057248;28;20033;-69
2021/03/19 04:42:53;;;;;;;13.52;6.65;;;9.20;99.90;;;;;;5057059;28;20032;-69
2021/03/19 04:45:19;;;;;;;10.90;6.53;;;9.20;99.90;;;;;;5057256;28;20021;-69
2021/03/19 04:47:45;;;;;;;11.40;6.97;;;9.10;99.90;;;;;;5057097;28;20025;-69
2021/03/19 04:50:13;;;;;;;13.75;7.75;;;9.20;99.90;;;;;;5055518;28;20951;-69
2021/03/19 04:52:39;;;;;;;13.60;7.38;;;9.10;99.90;;;;;;5056971;28;20374;-69
2021/03/19 04:55:05;;;;;;;;;;;9.10;99.90;;;;;;5057586;28;20108;-69
2021/03/19 04:57:31;;;;;;;10.27;6.87;;;9.30;99.90;;;;;;5057010;28;19927;-69
2021/03/19 04:59:58;;;;;;;17.05;7.38;;;9.10;99.90;;;;;;5055634;28;20391;-69
2021/03/19 05:02:36;;;;;;;15.57;8.20;;;9.20;99.90;;;;;;5056875;28;20029;-69
2021/03/19 05:05:04;;;;;;;13.95;7.85;;;9.20;99.90;;;;;;5055638;28;20021;-69
2021/03/19 05:07:29;;;;;;;13.55;8.77;;;9.20;99.90;;;;;;5056974;28;20013;-69
2021/03/19 05:09:55;;;;;;;;;;;9.20;99.90;;;;;;5057371;28;20025;-69
2021/03/19 05:12:21;;;;;;;21.55;10.60;;;9.20;99.90;;;;;;5057002;28;19911;-69
2021/03/19 05:14:47;;;;;;;20.40;8.55;;;9.20;99.90;;;;;;5056833;28;20047;-69
2021/03/19 05:17:15;;;;;;;15.05;8.93;;;9.40;99.90;;;;;;5056990;28;20025;-69
2021/03/19 05:19:41;;;;;;;18.88;9.10;;;9.40;99.90;;;;;;5056589;28;20021;-69
2021/03/19 05:22:06;;;;;;;;;;;9.40;99.90;;;;;;5057312;28;20381;-69
2021/03/19 05:24:33;;;;;;;12.70;7.78;;;9.40;99.90;;;;;;5056731;28;19908;-69
2021/03/19 05:26:59;;;;;;;17.85;9.65;;;9.30;99.90;;;;;;5056836;28;20084;-69
2021/03/19 05:29:24;;;;;;;;;;;9.50;99.90;;;;;;5057217;28;20066;-69
2021/03/19 05:31:50;;;;;;;21.60;9.95;;;9.60;99.90;;;;;;5057041;28;19912;-69
2021/03/19 05:34:17;;;;;;;19.65;9.02;;;9.60;99.90;;;;;;5047457;28;20485;-67
2021/03/19 05:36:42;;;;;;;21.65;8.95;;;9.50;99.90;;;;;;5055650;28;20476;-69
2021/03/19 05:39:09;;;;;;;;;;;9.70;99.90;;;;;;5056886;28;20103;-69
2021/03/19 05:41:37;;;;;;;18.83;8.63;;;9.50;99.90;;;;;;5076426;28;19950;-69
2021/03/19 05:44:16;;;;;;;19.45;7.78;;;9.60;99.90;;;;;;5076549;28;20093;-69
2021/03/19 05:46:45;;;;;;;11.85;8.30;;;9.50;99.90;;;;;;5080511;28;20373;-69
2021/03/19 05:49:26;;;;;;;13.48;8.20;;;9.50;99.90;;;;;;5079637;28;20377;-69
2021/03/19 05:52:01;;;;;;;16.60;8.18;;;9.60;99.90;;;;;;5073241;28;20017;-68
2021/03/19 05:54:36;;;;;;;19.95;7.78;;;9.60;99.90;;;;;;5060152;28;20052;-69
2021/03/19 05:57:08;;;;;;;19.38;9.38;;;9.60;99.90;;;;;;5059328;28;20031;-69
2021/03/19 05:59:34;;;;;;;13.55;7.70;;;9.60;99.90;;;;;;5058395;28;20055;-68
2021/03/19 06:02:00;;;;;;;;;;;9.50;99.90;;;;;;5059508;28;20024;-69
2021/03/19 06:04:28;;;;;;;12.10;7.65;;;9.60;99.90;;;;;;5058932;28;19912;-69
2021/03/19 06:07:00;;;;;;;11.55;7.38;;;9.50;99.90;;;;;;5059620;28;20473;-69
2021/03/19 06:09:29;;;;;;;13.85;8.40;;;9.60;99.90;;;;;;5060003;28;20536;-69
2021/03/19 06:12:02;;;;;;;19.25;8.05;;;9.50;99.90;;;;;;5059767;28;20389;-69
2021/03/19 06:14:33;;;;;;;12.98;7.03;;;9.50;99.90;;;;;;5059919;28;20147;-69
2021/03/19 06:17:20;;;;;;;10.45;7.13;;;9.50;99.90;;;;;;5059727;28;20109;-69
2021/03/19 06:20:05;;;;;;;11.38;7.47;;;9.40;99.90;;;;;;5059687;28;20544;-69
2021/03/19 06:22:47;;;;;;;12.77;8.05;;;9.50;99.90;;;;;;5059700;28;20033;-68
2021/03/19 06:25:41;;;;;;;15.63;9.90;;;9.30;99.90;;;;;;5059540;28;20024;-69
2021/03/19 06:28:28;;;;;;;13.07;6.95;;;9.40;99.90;;;;;;5059547;28;20063;-69
2021/03/19 06:31:19;;;;;;;13.27;6.68;;;9.40;99.90;;;;;;5059488;28;20025;-69
2021/03/19 06:33:46;;;;;;;8.18;6.75;;;9.40;99.90;;;;;;5059452;28;20507;-69
2021/03/19 06:36:19;;;;;;;9.18;7.25;;;9.30;99.90;;;;;;5071950;28;20033;-69
2021/03/19 06:38:48;;;;;;;12.15;6.82;;;9.40;99.90;;;;;;5079647;28;20056;-69
2021/03/19 06:41:15;;;;;;;7.68;6.18;;;9.40;99.90;;;;;;5079529;28;20048;-69
2021/03/19 06:43:41;;;;;;;10.60;7.13;;;9.40;99.90;;;;;;5079296;28;20566;-69
2021/03/19 06:46:13;;;;;;;;;;;9.30;99.90;;;;;;5079749;28;20450;-69
2021/03/19 06:48:45;;;;;;;15.32;6.80;;;9.40;99.90;;;;;;5079327;28;19905;-69
2021/03/19 06:51:33;;;;;;;9.27;6.68;;;9.40;99.90;;;;;;5078855;28;20029;-69
2021/03/19 06:54:00;;;;;;;9.18;6.57;;;9.50;99.90;;;;;;5079099;28;20021;-69
2021/03/19 06:56:27;;;;;;;6.32;5.72;;;9.40;99.90;;;;;;5078190;28;20032;-69
2021/03/19 06:58:54;;;;;;;8.88;6.07;;;9.40;99.90;;;;;;5078880;28;20059;-69
2021/03/19 07:01:23;;;;;;;8.80;4.80;;;9.40;99.90;;;;;;5078988;28;20048;-69
2021/03/19 07:04:09;;;;;;;6.05;5.32;;;9.30;99.90;;;;;;5078846;28;20429;-68
2021/03/19 07:06:59;;;;;;;5.07;4.53;;;9.20;99.90;;;;;;5078447;28;20095;-69
2021/03/19 07:09:40;;;;;;;7.97;5.45;;;9.30;99.90;;;;;;5078811;28;20020;-69
2021/03/19 07:12:42;;;;;;;5.47;4.55;;;9.20;99.90;;;;;;5078747;28;20016;-69
2021/03/19 07:15:36;;;;;;;7.45;4.25;;;9.10;99.90;;;;;;5079059;28;20025;-69
2021/03/19 07:18:35;;;;;;;6.13;4.50;;;9.20;99.90;;;;;;5078573;28;20032;-68
2021/03/19 07:21:38;;;;;;;9.52;4.63;;;9.20;99.90;;;;;;5078295;28;20078;-69
2021/03/19 07:24:37;;;;;;;4.53;3.70;;;9.10;99.90;;;;;;5068414;28;20145;-69
2021/03/19 07:27:21;;;;;;;4.72;4.05;;;9.20;99.90;;;;;;5058758;28;20104;-69
2021/03/19 07:30:20;;;;;;;6.82;3.85;;;9.10;99.90;;;;;;5058240;28;20024;-69
2021/03/19 07:33:23;;;;;;;5.78;3.20;;;9.00;99.90;;;;;;5038882;28;20406;-68
2021/03/19 07:36:02;;;;;;;7.18;4.10;;;9.10;99.90;;;;;;5054195;28;20021;-69
2021/03/19 07:38:50;;;;;;;4.72;3.70;;;9.10;99.90;;;;;;5057027;28;20029;-69
2021/03/19 07:41:48;;;;;;;6.25;4.03;;;9.10;99.90;;;;;;5056828;28;20025;-69
2021/03/19 07:44:47;;;;;;;3.38;3.08;;;9.00;99.90;;;;;;5053604;28;20416;-69
2021/03/19 07:47:33;;;;;;;5.88;3.42;;;9.10;99.90;;;;;;5058247;28;20393;-69
2021/03/19 07:50:17;;;;;;;3.47;3.15;;;9.20;99.90;;;;;;5057926;28;20583;-69
2021/03/19 07:53:12;;;;;;;4.55;3.08;;;9.40;99.90;;;;;;5057895;28;20024;-69
2021/03/19 07:55:57;;;;;;;5.25;2.67;;;9.50;99.90;;;;;;5056546;28;20028;-68
2021/03/19 07:58:52;;;;;;;3.20;2.80;;;9.60;99.90;;;;;;5058002;28;20025;-69
2021/03/19 08:01:31;;;;;;;5.07;2.88;;;9.60;99.90;;;;;;5057738;28;20056;-69
2021/03/19 08:04:23;;;;;;;3.22;2.75;;;9.70;99.90;;;;;;5057586;28;20028;-69
2021/03/19 08:06:54;;;;;;;4.03;2.80;;;9.80;99.90;;;;;;5054736;28;20489;-69
2021/03/19 08:09:26;;;;;;;7.35;3.10;;;10.00;99.90;;;;;;5056208;28;20021;-69
2021/03/19 08:12:21;;;;;;;3.67;2.58;;;9.90;99.90;;;;;;5057690;28;20025;-69
2021/03/19 08:15:24;;;;;;;3.55;2.60;;;9.70;99.90;;;;;;5056289;28;20032;-69
2021/03/19 08:18:23;;;;;;;3.13;2.50;;;9.60;99.90;;;;;;5054489;28;20028;-69
2021/03/19 08:21:24;;;;;;;2.63;2.22;;;9.60;99.90;;;;;;5057295;28;20021;-69
2021/03/19 08:23:53;;;;;;;3.60;2.60;;;9.60;99.90;;;;;;5057740;28;20037;-69
2021/03/19 08:26:28;;;;;;;2.78;2.05;;;9.60;99.90;;;;;;5057537;28;20021;-69
2021/03/19 08:29:20;;;;;;;2.10;1.80;;;9.90;99.90;;;;;;5057427;28;20024;-69
2021/03/19 08:32:01;;;;;;;2.40;2.20;;;9.90;99.90;;;;;;5044810;28;20078;-69
2021/03/19 08:34:55;;;;;;;3.08;2.00;;;10.00;99.90;;;;;;5053726;28;20426;-69
2021/03/19 08:37:32;;;;;;;2.13;1.95;;;10.00;99.90;;;;;;5057312;28;20032;-69
2021/03/19 08:39:59;;;;;;;3.00;2.15;;;10.20;99.90;;;;;;5057583;28;20534;-69
2021/03/19 08:42:34;;;;;;;2.55;2.35;;;10.10;99.90;;;;;;5057104;28;20017;-69
2021/03/19 08:45:04;;;;;;;6.97;2.30;;;9.90;99.90;;;;;;5057323;28;20112;-69
2021/03/19 08:47:35;;;;;;;2.67;1.92;;;9.90;99.90;;;;;;5057024;28;20067;-69
2021/03/19 08:50:23;;;;;;;1.88;1.73;;;9.80;99.90;;;;;;5057177;28;20021;-69
2021/03/19 08:53:13;;;;;;;2.15;2.00;;;9.90;99.90;;;;;;5057349;28;20024;-69
2021/03/19 08:56:04;;;;;;;4.18;1.70;;;9.90;99.90;;;;;;5057085;28;20029;-69
2021/03/19 08:58:30;;;;;;;1.95;1.60;;;9.90;99.90;;;;;;5052888;28;20041;-69
2021/03/19 09:01:07;;;;;;;2.25;1.50;;;10.00;99.90;;;;;;5056941;28;20047;-69
2021/03/19 09:03:43;;;;;;;1.83;1.60;;;9.80;99.90;;;;;;5057349;28;20025;-69
2021/03/19 09:06:09;;;;;;;1.60;1.50;;;10.40;99.90;;;;;;5056908;28;20017;-68
2021/03/19 09:08:47;;;;;;;3.25;1.20;;;11.30;99.90;;;;;;5057138;28;20097;-69
2021/03/19 09:11:24;;;;;;;2.90;1.38;;;11.60;99.90;;;;;;5057006;28;20039;-69
2021/03/19 09:14:04;;;;;;;1.25;1.15;;;11.50;99.90;;;;;;5057008;28;20396;-69
2021/03/19 09:16:40;;;;;;;1.15;1.08;;;11.20;99.90;;;;;;5056988;28;20035;-69
2021/03/19 09:19:41;;;;;;;1.00;1.00;;;11.10;99.90;;;;;;5057317;28;20033;-69
2021/03/19 09:22:37;;;;;;;0.75;0.70;;;11.20;99.90;;;;;;5060923;28;20264;-69
2021/03/19 09:25:13;;;;;;;0.80;0.80;;;11.40;99.90;;;;;;5060216;28;20037;-69
2021/03/19 09:27:39;;;;;;;1.42;1.05;;;11.40;99.90;;;;;;5061038;28;20078;-69
2021/03/19 09:30:14;;;;;;;1.25;0.70;;;11.50;99.90;;;;;;5060603;28;20100;-69
2021/03/19 09:32:44;;;;;;;1.83;0.90;;;11.70;99.90;;;;;;5060644;28;20021;-69
2021/03/19 09:35:15;;;;;;;0.80;0.80;;;12.40;99.90;;;;;;5056800;28;20029;-69
2021/03/19 09:37:46;;;;;;;0.82;0.82;;;13.20;99.90;;;;;;5060419;28;20021;-69
2021/03/19 09:40:51;;;;;;;1.25;0.98;;;13.80;99.90;;;;;;5060586;28;20033;-69
2021/03/19 09:43:41;;;;;;;0.88;0.80;;;14.60;99.90;;;;;;5060628;28;20045;-69
2021/03/19 09:46:13;;;;;;;1.65;0.90;;;15.20;99.90;;;;;;5060324;28;20056;-68
2021/03/19 09:48:39;;;;;;;1.80;0.75;;;15.20;99.90;;;;;;5060743;28;20021;-69
2021/03/19 09:51:15;;;;;;;1.83;0.90;;;14.80;99.90;;;;;;5059807;28;20058;-69
2021/03/19 09:53:42;;;;;;;1.83;0.90;;;14.10;99.90;;;;;;5060256;28;20052;-69
2021/03/19 09:56:20;;;;;;;1.25;0.70;;;13.20;99.90;;;;;;5060667;28;20032;-69
2021/03/19 09:58:50;;;;;;;1.48;0.90;;;12.40;99.90;;;;;;5058749;28;20512;-69
2021/03/19 10:01:28;;;;;;;1.88;1.77;;;11.90;99.90;;;;;;5059967;28;20131;-69
2021/03/19 10:04:01;;;;;;;0.98;0.98;;;11.30;99.90;;;;;;5060010;28;20116;-69
2021/03/19 10:06:46;;;;;;;1.20;1.10;;;11.30;99.90;;;;;;5059889;28;20053;-69
2021/03/19 10:09:25;;;;;;;2.53;1.60;;;11.70;99.90;;;;;;5060153;28;20071;-68
2021/03/19 10:12:10;;;;;;;1.45;1.35;;;12.50;99.90;;;;;;5059996;28;20029;-69
2021/03/19 10:14:42;;;;;;;0.80;0.80;;;13.10;99.90;;;;;;5060211;28;20029;-69
2021/03/19 10:17:18;;;;;;;1.90;0.80;;;13.30;99.90;;;;;;5059985;28;20033;-69
2021/03/19 10:20:07;;;;;;;1.27;0.82;;;13.00;99.90;;;;;;5059644;28;20472;-69
2021/03/19 10:22:39;;;;;;;1.10;1.00;;;12.80;99.90;;;;;;5055442;28;20063;-69
2021/03/19 10:25:23;;;;;;;0.80;0.80;;;12.50;99.90;;;;;;5060066;28;20066;-68
2021/03/19 10:27:52;;;;;;;3.63;0.90;;;12.70;99.90;;;;;;5059727;28;20048;-69
2021/03/19 10:30:29;;;;;;;1.02;0.93;;;13.20;99.90;;;;;;5059596;28;20017;-69
2021/03/19 10:33:02;;;;;;;1.17;0.90;;;13.60;99.90;;;;;;5059553;28;20051;-69
2021/03/19 10:35:33;;;;;;;2.08;0.90;;;13.40;99.90;;;;;;5054099;28;20509;-69
2021/03/19 10:38:11;;;;;;;1.95;0.80;;;13.60;99.90;;;;;;5059498;28;20024;-69
2021/03/19 10:40:38;;;;;;;1.05;0.88;;;13.70;99.90;;;;;;5059510;28;20029;-68
2021/03/19 10:43:24;;;;;;;2.60;0.90;;;14.20;99.90;;;;;;5057893;28;20029;-69
2021/03/19 10:46:05;;;;;;;1.42;1.33;;;14.50;99.90;;;;;;5059322;28;20029;-69
2021/03/19 10:48:37;;;;;;;3.05;0.77;;;14.80;99.90;;;;;;5059422;28;20021;-69
2021/03/19 10:51:34;;;;;;;1.02;0.85;;;15.40;99.90;;;;;;5058741;28;20545;-69
2021/03/19 10:54:17;;;;;;;1.25;0.70;;;15.90;99.70;;;;;;5059288;28;20025;-69
2021/03/19 10:56:50;;;;;;;3.28;0.90;;;16.10;99.30;;;;;;5059238;28;20036;-69
2021/03/19 10:59:29;;;;;;;3.83;1.08;;;16.70;96.60;;;;;;5057610;28;20470;-69
2021/03/19 11:02:15;;;;;;;2.83;0.60;;;16.90;95.00;;;;;;5059251;28;20056;-69
2021/03/19 11:04:55;;;;;;;3.17;1.02;;;17.20;92.00;;;;;;5058443;28;20037;-69
2021/03/19 11:07:26;;;;;;;3.53;0.80;;;17.30;91.20;;;;;;5058777;28;20020;-69
2021/03/19 11:10:12;;;;;;;1.95;0.63;;;17.10;91.00;;;;;;5058873;28;20021;-69
2021/03/19 11:12:46;;;;;;;3.13;1.30;;;17.00;91.50;;;;;;5058994;28;20114;-69
2021/03/19 11:15:36;;;;;;;1.60;0.85;;;16.90;90.80;;;;;;5059108;28;20025;-69
2021/03/19 11:18:24;;;;;;;1.08;0.80;;;17.10;90.10;;;;;;5057505;28;20025;-69
2021/03/19 11:20:58;;;;;;;3.70;0.82;;;17.80;86.80;;;;;;5057025;28;20516;-69
2021/03/19 11:23:40;;;;;;;1.67;0.60;;;18.70;85.40;;;;;;5058424;28;20079;-69
2021/03/19 11:26:24;;;;;;;2.28;1.05;;;19.10;82.10;;;;;;5058736;28;20028;-69
2021/03/19 11:29:14;;;;;;;2.20;0.77;;;19.30;80.50;;;;;;5058655;28;20021;-69
2021/03/19 11:32:01;;;;;;;2.58;0.88;;;19.20;75.70;;;;;;5058346;28;20045;-69
2021/03/19 11:34:35;;;;;;;4.60;1.17;;;18.80;76.90;;;;;;5054484;28;20100;-69
2021/03/19 11:37:14;;;;;;;2.78;1.17;;;18.70;76.30;;;;;;5058658;28;20029;-69
2021/03/19 11:39:43;;;;;;;1.65;0.80;;;19.40;79.00;;;;;;5058246;28;20025;-69
2021/03/19 11:42:14;;;;;;;2.28;0.80;;;19.70;76.60;;;;;;5058143;28;20064;-69
2021/03/19 11:44:41;;;;;;;1.73;0.73;;;19.90;75.20;;;;;;5056698;28;20036;-69
2021/03/19 11:47:27;;;;;;;2.75;0.85;;;19.90;76.20;;;;;;5058248;28;20026;-69
2021/03/19 11:50:11;;;;;;;4.10;0.95;;;19.60;75.00;;;;;;5056512;28;20025;-69
2021/03/19 11:52:37;;;;;;;4.65;0.90;;;19.20;75.50;;;;;;5056462;28;20055;-70
2021/03/19 11:55:04;;;;;;;4.63;0.80;;;18.80;75.30;;;;;;5058134;28;20021;-69
2021/03/19 11:57:30;;;;;;;2.10;0.80;;;18.60;74.80;;;;;;5057895;28;20108;-69
2021/03/19 11:59:55;;;;;;;5.40;1.00;;;18.40;75.10;;;;;;5057827;28;20148;-69
2021/03/19 12:02:39;;;;;;;4.18;1.00;;;18.40;73.70;;;;;;5056503;28;20025;-69
2021/03/19 12:05:08;;;;;;;3.80;1.40;;;17.80;73.30;;;;;;5057711;28;20119;-69
2021/03/19 12:07:34;;;;;;;5.10;1.30;;;17.50;75.60;;;;;;5057785;28;20025;-69
2021/03/19 12:10:01;;;;;;;3.88;1.35;;;17.80;75.60;;;;;;5057696;28;20028;-69
2021/03/19 12:12:27;;;;;;;3.92;1.08;;;18.60;75.40;;;;;;5058178;28;20025;-69
2021/03/19 12:14:55;;;;;;;2.53;1.00;;;19.10;72.10;;;;;;5057637;28;20025;-69
2021/03/19 12:17:22;;;;;;;5.43;1.38;;;19.50;72.30;;;;;;5057877;28;20021;-69
2021/03/19 12:19:48;;;;;;;2.55;1.05;;;20.10;68.00;;;;;;5057272;28;20025;-70
2021/03/19 12:22:14;;;;;;;4.72;1.88;;;19.90;65.90;;;;;;5057522;28;20081;-70
2021/03/19 12:24:40;;;;;;;5.43;1.65;;;19.70;69.30;;;;;;5057365;28;20445;-70
2021/03/19 12:27:07;;;;;;;5.75;1.65;;;20.00;68.00;;;;;;5057753;28;20538;-70
2021/03/19 12:29:33;;;;;;;5.95;1.55;;;20.00;69.10;;;;;;5057224;28;20389;-70
2021/03/19 12:31:59;;;;;;;7.13;1.77;;;20.50;68.30;;;;;;5057738;28;20022;-70
2021/03/19 12:34:25;;;;;;;4.50;1.52;;;20.80;68.30;;;;;;5053912;28;20029;-70
2021/03/19 12:36:52;;;;;;;6.55;1.38;;;20.40;67.20;;;;;;5057496;28;20033;-70
2021/03/19 12:39:18;;;;;;;4.45;1.35;;;20.50;66.20;;;;;;5057286;28;20033;-70
2021/03/19 12:41:45;;;;;;;6.15;1.23;;;20.30;65.80;;;;;;5057377;28;20445;-70
2021/03/19 12:44:11;;;;;;;5.18;1.25;;;20.50;66.40;;;;;;5057481;28;20405;-70
2021/03/19 12:46:38;;;;;;;5.00;1.17;;;20.40;66.60;;;;;;5057230;28;20425;-70
2021/03/19 12:49:04;;;;;;;4.00;1.23;;;20.40;66.10;;;;;;5057196;28;20425;-70
2021/03/19 12:51:30;;;;;;;10.05;1.55;;;19.80;64.90;;;;;;5056911;28;20014;-70
2021/03/19 12:53:57;;;;;;;3.55;1.70;;;19.30;66.10;;;;;;5057230;28;20033;-70
2021/03/19 12:56:23;;;;;;;4.82;1.88;;;19.60;66.70;;;;;;5061402;28;20040;-70
2021/03/19 12:58:49;;;;;;;6.05;1.83;;;19.20;66.80;;;;;;5061276;28;20025;-70
2021/03/19 13:01:19;;;;;;;4.53;1.73;;;19.10;68.10;;;;;;5061119;28;20124;-70
2021/03/19 13:03:46;;;;;;;4.35;1.35;;;19.70;66.50;;;;;;5061059;28;20408;-70
2021/03/19 13:06:12;;;;;;;6.68;1.80;;;20.20;65.70;;;;;;5060899;28;20021;-70
2021/03/19 13:08:38;;;;;;;5.10;1.88;;;20.10;64.60;;;;;;5061152;28;20021;-70
2021/03/19 13:11:04;;;;;;;6.10;1.55;;;19.80;63.90;;;;;;5061299;28;20076;-70
2021/03/19 13:13:30;;;;;;;11.05;2.17;;;19.90;64.70;;;;;;5059670;28;20033;-70
2021/03/19 13:15:56;;;;;;;6.07;1.95;;;20.40;65.40;;;;;;5061099;28;20078;-70
2021/03/19 13:18:22;;;;;;;6.70;1.63;;;20.30;61.60;;;;;;5060994;28;20485;-70
2021/03/19 13:20:49;;;;;;;6.10;1.40;;;19.60;63.40;;;;;;5059237;28;20027;-70
2021/03/19 13:23:16;;;;;;;6.25;1.80;;;19.50;66.10;;;;;;5060625;28;20033;-70
2021/03/19 13:25:42;;;;;;;3.72;1.10;;;19.60;64.70;;;;;;5060959;28;20066;-70
2021/03/19 13:28:09;;;;;;;7.93;1.30;;;19.90;61.10;;;;;;5059429;28;20040;-70
2021/03/19 13:30:37;;;;;;;4.45;1.08;;;20.40;60.30;;;;;;5060874;28;20147;-70
2021/03/19 13:33:04;;;;;;;7.93;1.60;;;20.80;61.80;;;;;;5060924;28;20035;-70